Time;durP1;ratioP1;P1;durP2;ratioP2;P2;SDS_P1;SDS_P2;PMS_P1;PMS_P2;Temp;Humidity;BMP_temperature;BMP_pressure;BME280_temperature;BME280_humidity;BME280_pressure;Samples;Min_cycle;Max_cycle;Signal;HPM_P1;HPM_P2
2021/03/29 00:01:32;;;;;;;8.43;2.83;;;7.60;71.90;;;;;;5032350;28;20378;-80
2021/03/29 00:03:58;;;;;;;9.55;2.53;;;7.50;72.20;;;;;;5031592;28;20037;-80
2021/03/29 00:06:26;;;;;;;5.82;2.75;;;7.40;72.70;;;;;;5032035;28;20033;-80
2021/03/29 00:08:54;;;;;;;9.98;2.85;;;7.40;73.40;;;;;;5032166;28;20037;-79
2021/03/29 00:11:23;;;;;;;8.82;3.38;;;7.40;73.80;;;;;;5027379;28;20048;-78
2021/03/29 00:13:52;;;;;;;8.02;2.80;;;7.40;74.10;;;;;;5014138;28;20033;-79
2021/03/29 00:16:20;;;;;;;5.90;2.78;;;7.30;74.70;;;;;;5032193;28;20034;-80
2021/03/29 00:18:47;;;;;;;5.95;2.15;;;7.30;75.20;;;;;;5031459;28;20362;-80
2021/03/29 00:21:14;;;;;;;10.07;2.80;;;7.30;75.50;;;;;;5031407;28;20045;-79
2021/03/29 00:23:41;;;;;;;10.55;2.55;;;7.30;75.70;;;;;;5039913;28;20372;-79
2021/03/29 00:26:08;;;;;;;7.78;2.47;;;7.20;75.30;;;;;;5037970;28;20041;-80
2021/03/29 00:28:35;;;;;;;10.82;2.80;;;7.20;75.80;;;;;;5031391;28;20045;-80
2021/03/29 00:31:06;;;;;;;8.93;3.47;;;7.20;75.20;;;;;;5035441;28;20040;-80
2021/03/29 00:33:34;;;;;;;9.13;3.92;;;7.10;75.20;;;;;;5031097;28;20041;-79
2021/03/29 00:36:00;;;;;;;9.30;3.33;;;7.00;75.50;;;;;;5017310;28;20041;-78
2021/03/29 00:38:28;;;;;;;9.73;4.40;;;7.00;75.90;;;;;;5035918;28;20038;-79
2021/03/29 00:40:58;;;;;;;8.25;2.92;;;7.00;76.50;;;;;;5039302;28;20041;-79
2021/03/29 00:43:31;;;;;;;13.25;3.45;;;6.90;76.80;;;;;;5043424;28;20040;-78
2021/03/29 00:45:59;;;;;;;8.00;4.05;;;7.00;77.20;;;;;;5018074;28;20064;-80
2021/03/29 00:48:26;;;;;;;8.55;3.15;;;6.90;77.40;;;;;;5035406;28;20040;-80
2021/03/29 00:51:22;;;;;;;9.40;3.22;;;7.00;77.70;;;;;;5022740;28;20049;-79
2021/03/29 00:53:56;;;;;;;10.10;3.38;;;6.90;77.80;;;;;;5014815;28;20056;-80
2021/03/29 00:56:23;;;;;;;8.20;4.00;;;7.00;78.20;;;;;;5035356;28;20465;-79
2021/03/29 00:58:51;;;;;;;5.85;2.80;;;7.00;78.00;;;;;;5049756;28;20033;-79
2021/03/29 01:01:23;;;;;;;7.10;3.58;;;7.00;78.40;;;;;;5035472;28;20036;-79
2021/03/29 01:03:55;;;;;;;9.82;3.58;;;7.00;78.60;;;;;;5001016;28;20037;-79
2021/03/29 01:06:25;;;;;;;8.88;3.35;;;7.00;78.60;;;;;;5037471;28;20461;-80
2021/03/29 01:08:54;;;;;;;8.60;2.58;;;7.10;78.60;;;;;;5049090;28;20041;-80
2021/03/29 01:11:33;;;;;;;10.13;3.40;;;7.10;78.60;;;;;;5039684;28;20030;-80
2021/03/29 01:14:09;;;;;;;10.25;3.72;;;7.00;78.80;;;;;;5017403;28;20072;-80
2021/03/29 01:16:44;;;;;;;11.43;3.80;;;7.00;78.90;;;;;;5051581;28;20033;-80
2021/03/29 01:19:46;;;;;;;7.63;2.95;;;7.00;78.90;;;;;;5039633;28;20045;-80
2021/03/29 01:22:17;;;;;;;;;;;7.00;79.10;;;;;;5035185;28;20049;-80
2021/03/29 01:24:57;;;;;;;8.27;3.50;;;7.00;79.10;;;;;;5050194;28;19908;-81
2021/03/29 01:27:29;;;;;;;9.90;3.25;;;7.00;79.60;;;;;;5028124;28;20030;-80
2021/03/29 01:29:57;;;;;;;7.60;2.92;;;6.90;79.80;;;;;;5012313;28;20047;-80
2021/03/29 01:32:24;;;;;;;8.70;3.95;;;7.00;80.00;;;;;;5033101;28;20034;-79
2021/03/29 01:34:51;;;;;;;10.63;3.67;;;7.00;80.10;;;;;;5031478;28;20112;-80
2021/03/29 01:37:19;;;;;;;7.15;3.15;;;6.90;80.20;;;;;;5012494;28;20041;-80
2021/03/29 01:39:48;;;;;;;6.68;3.70;;;6.90;80.70;;;;;;5034378;28;20034;-81
2021/03/29 01:42:16;;;;;;;11.65;3.40;;;6.80;80.60;;;;;;5030947;28;20527;-81
2021/03/29 01:44:44;;;;;;;7.60;3.53;;;6.70;81.20;;;;;;5034374;28;20044;-81
2021/03/29 01:47:10;;;;;;;9.32;3.97;;;6.70;81.60;;;;;;5034835;28;20029;-80
2021/03/29 01:49:38;;;;;;;9.95;3.22;;;6.80;81.70;;;;;;5034661;28;20044;-80
2021/03/29 01:52:05;;;;;;;10.40;3.50;;;6.80;81.60;;;;;;5032781;28;20045;-80
2021/03/29 01:54:33;;;;;;;6.35;3.42;;;6.80;81.80;;;;;;5016230;28;20050;-81
2021/03/29 01:57:10;;;;;;;7.65;3.08;;;6.70;81.90;;;;;;5034049;28;20038;-79
2021/03/29 01:59:38;;;;;;;9.60;3.72;;;6.80;81.90;;;;;;5034089;28;20064;-80
2021/03/29 02:02:06;;;;;;;7.15;3.10;;;6.80;81.80;;;;;;5031468;28;20060;-80
2021/03/29 02:04:34;;;;;;;6.60;2.83;;;6.80;81.80;;;;;;5034498;28;20036;-80
2021/03/29 02:07:08;;;;;;;10.15;3.17;;;6.70;81.90;;;;;;5018930;28;20045;-79
2021/03/29 02:09:35;;;;;;;10.20;3.55;;;6.70;82.40;;;;;;5035261;28;20052;-79
2021/03/29 02:12:07;;;;;;;11.05;3.03;;;6.70;82.40;;;;;;5049014;28;20029;-79
2021/03/29 02:14:35;;;;;;;6.97;2.75;;;6.70;82.60;;;;;;5037609;28;20025;-80
2021/03/29 02:17:05;;;;;;;8.32;3.58;;;6.70;82.90;;;;;;5024514;28;20064;-79
2021/03/29 02:19:32;;;;;;;8.05;3.42;;;6.70;83.10;;;;;;5015906;28;20045;-79
2021/03/29 02:21:59;;;;;;;9.73;3.67;;;6.70;83.40;;;;;;5015046;28;20078;-79
2021/03/29 02:24:26;;;;;;;11.27;2.92;;;6.60;83.80;;;;;;5032567;28;20060;-80
2021/03/29 02:26:53;;;;;;;7.47;2.60;;;6.60;84.30;;;;;;5014921;28;20172;-79
2021/03/29 02:29:29;;;;;;;6.88;2.80;;;6.60;84.70;;;;;;5033211;28;20052;-80
2021/03/29 02:31:59;;;;;;;8.65;3.17;;;6.50;84.90;;;;;;5032486;28;20040;-80
2021/03/29 02:34:26;;;;;;;6.68;2.08;;;6.50;85.50;;;;;;5037986;28;20044;-80
2021/03/29 02:36:53;;;;;;;6.45;2.50;;;6.50;85.90;;;;;;5045309;28;20371;-80
2021/03/29 02:39:20;;;;;;;9.68;3.13;;;6.50;85.90;;;;;;5032990;28;20052;-79
2021/03/29 02:41:48;;;;;;;9.93;3.22;;;6.50;86.00;;;;;;5016640;28;20069;-80
2021/03/29 02:44:18;;;;;;;8.82;3.42;;;6.60;85.90;;;;;;5015254;28;20030;-79
2021/03/29 02:46:48;;;;;;;4.72;2.15;;;6.70;85.40;;;;;;5033080;28;20029;-79
2021/03/29 02:49:15;;;;;;;5.38;2.63;;;6.80;85.00;;;;;;5036348;28;20433;-80
2021/03/29 02:51:44;;;;;;;6.03;2.63;;;6.80;84.80;;;;;;5037206;28;20034;-80
2021/03/29 02:54:12;;;;;;;7.13;2.75;;;6.70;85.10;;;;;;5031695;28;20056;-80
2021/03/29 02:56:43;;;;;;;6.28;2.88;;;6.70;85.50;;;;;;5032641;28;20038;-80
2021/03/29 02:59:15;;;;;;;11.52;3.55;;;6.60;85.50;;;;;;5042268;28;20038;-80
2021/03/29 03:01:42;;;;;;;5.90;2.67;;;6.60;85.40;;;;;;5046067;28;20040;-80
2021/03/29 03:04:11;;;;;;;6.78;2.60;;;6.70;85.30;;;;;;5041626;28;20033;-80
2021/03/29 03:06:39;;;;;;;10.20;3.05;;;6.60;85.80;;;;;;5014497;28;20041;-80
2021/03/29 03:09:06;;;;;;;7.28;2.80;;;6.50;86.70;;;;;;5022515;28;20037;-79
2021/03/29 03:11:34;;;;;;;5.53;3.15;;;6.40;87.50;;;;;;5045248;28;20025;-80
2021/03/29 03:14:04;;;;;;;6.70;2.70;;;6.40;88.80;;;;;;5043653;28;20033;-80
2021/03/29 03:16:32;;;;;;;7.65;2.60;;;6.40;89.30;;;;;;5044753;28;20389;-80
2021/03/29 03:18:59;;;;;;;7.43;3.45;;;6.40;90.00;;;;;;5035820;28;20036;-80
2021/03/29 03:21:26;;;;;;;8.27;3.20;;;6.30;90.00;;;;;;5032602;28;20038;-80
2021/03/29 03:23:54;;;;;;;6.60;2.72;;;6.30;90.30;;;;;;5031909;28;20037;-81
2021/03/29 03:26:20;;;;;;;5.78;3.65;;;6.20;90.10;;;;;;5031916;28;20038;-79
2021/03/29 03:28:48;;;;;;;8.07;2.90;;;6.10;90.50;;;;;;5032439;28;20037;-78
2021/03/29 03:31:15;;;;;;;7.45;2.97;;;6.10;91.00;;;;;;5035216;28;20021;-78
2021/03/29 03:33:41;;;;;;;10.15;3.33;;;6.10;91.10;;;;;;5021473;28;20032;-78
2021/03/29 03:36:08;;;;;;;7.32;2.97;;;6.10;91.00;;;;;;5014626;28;20353;-78
2021/03/29 03:38:38;;;;;;;7.90;2.60;;;6.20;90.50;;;;;;5032719;28;20029;-79
2021/03/29 03:41:10;;;;;;;7.75;2.90;;;6.20;90.30;;;;;;5040378;28;20389;-79
2021/03/29 03:43:42;;;;;;;9.15;3.75;;;6.20;90.30;;;;;;5047833;28;20037;-79
2021/03/29 03:46:15;;;;;;;10.25;3.08;;;6.30;90.20;;;;;;5015593;28;20037;-79
2021/03/29 03:48:42;;;;;;;8.65;2.90;;;6.50;89.80;;;;;;5012862;28;20461;-79
2021/03/29 03:51:10;;;;;;;6.15;3.20;;;6.60;89.10;;;;;;5031776;28;20037;-79
2021/03/29 03:53:36;;;;;;;7.93;2.92;;;6.50;89.10;;;;;;5013450;28;20045;-79
2021/03/29 03:56:03;;;;;;;8.32;4.10;;;6.50;88.90;;;;;;5031990;28;20036;-79
2021/03/29 03:58:31;;;;;;;9.07;2.95;;;6.60;88.60;;;;;;5032541;28;20045;-80
2021/03/29 04:00:59;;;;;;;8.55;3.75;;;6.60;88.40;;;;;;5014380;28;20041;-78
2021/03/29 04:03:26;;;;;;;10.27;3.22;;;6.70;88.10;;;;;;5032078;28;20056;-80
2021/03/29 04:05:53;;;;;;;6.78;2.83;;;6.70;87.90;;;;;;5021321;28;20029;-80
2021/03/29 04:08:20;;;;;;;7.22;3.58;;;6.80;87.50;;;;;;5038994;28;20358;-81
2021/03/29 04:10:49;;;;;;;10.05;3.28;;;6.80;87.30;;;;;;5051418;28;20060;-80
2021/03/29 04:13:29;;;;;;;7.35;2.60;;;6.80;87.20;;;;;;5037631;28;20032;-80
2021/03/29 04:15:59;;;;;;;6.68;2.80;;;6.80;87.00;;;;;;5032702;28;20033;-79
2021/03/29 04:18:26;;;;;;;8.05;2.83;;;6.80;87.10;;;;;;5048741;28;20029;-79
2021/03/29 04:20:53;;;;;;;7.60;2.70;;;6.80;86.80;;;;;;5035057;28;20058;-79
2021/03/29 04:23:21;;;;;;;8.25;2.97;;;6.80;86.60;;;;;;5035361;28;20030;-79
2021/03/29 04:25:48;;;;;;;13.98;3.72;;;6.80;86.80;;;;;;5037138;28;20037;-80
2021/03/29 04:28:15;;;;;;;9.65;3.20;;;6.70;87.20;;;;;;5054956;28;20036;-79
2021/03/29 04:30:41;;;;;;;10.73;3.85;;;6.60;87.50;;;;;;5054324;28;20033;-80
2021/03/29 04:33:08;;;;;;;8.27;3.53;;;6.50;87.80;;;;;;5038125;28;20071;-80
2021/03/29 04:35:34;;;;;;;8.10;3.90;;;6.50;88.40;;;;;;5035486;28;20026;-80
2021/03/29 04:38:01;;;;;;;7.07;3.42;;;6.40;88.70;;;;;;5017932;28;20037;-80
2021/03/29 04:40:28;;;;;;;7.88;3.75;;;6.40;89.40;;;;;;5038779;28;20033;-80
2021/03/29 04:42:55;;;;;;;9.23;3.30;;;6.30;90.00;;;;;;5039370;28;20041;-80
2021/03/29 04:45:22;;;;;;;10.82;4.03;;;6.20;90.30;;;;;;5017929;28;20037;-80
2021/03/29 04:47:49;;;;;;;9.23;3.17;;;6.10;90.60;;;;;;5041690;28;20032;-80
2021/03/29 04:50:17;;;;;;;8.43;3.60;;;6.10;90.90;;;;;;5020772;28;20397;-80
2021/03/29 04:52:43;;;;;;;7.43;3.42;;;6.20;90.90;;;;;;5034668;28;20044;-80
2021/03/29 04:55:11;;;;;;;7.22;3.58;;;6.30;90.50;;;;;;5017423;28;20280;-82
2021/03/29 04:57:38;;;;;;;7.10;3.35;;;6.50;90.10;;;;;;5040955;28;20033;-82
2021/03/29 05:00:06;;;;;;;6.20;3.28;;;6.50;89.80;;;;;;5035735;28;20100;-82
2021/03/29 05:02:33;;;;;;;9.40;3.40;;;6.50;89.80;;;;;;5045901;28;20045;-82
2021/03/29 05:04:59;;;;;;;11.23;4.70;;;6.40;90.00;;;;;;5034189;28;20038;-82
2021/03/29 05:07:26;;;;;;;12.77;3.72;;;6.30;90.20;;;;;;5035136;28;20029;-81
2021/03/29 05:09:52;;;;;;;7.97;3.25;;;6.30;90.50;;;;;;5041445;28;20422;-81
2021/03/29 05:12:22;;;;;;;26.55;14.13;;;6.30;90.60;;;;;;5034874;28;20084;-82
2021/03/29 05:14:49;;;;;;;15.40;7.75;;;6.30;90.60;;;;;;5035058;28;20480;-79
2021/03/29 05:17:15;;;;;;;39.58;22.20;;;6.30;90.70;;;;;;5016321;28;20042;-80
2021/03/29 05:19:42;;;;;;;54.95;31.80;;;6.30;90.50;;;;;;5032904;28;20046;-83
2021/03/29 05:22:09;;;;;;;57.92;35.00;;;6.40;90.50;;;;;;5028793;28;20052;-82
2021/03/29 05:24:36;;;;;;;52.75;36.40;;;6.30;90.60;;;;;;5037056;28;20485;-82
2021/03/29 05:27:04;;;;;;;51.88;33.65;;;6.30;90.80;;;;;;5048798;28;20043;-82
2021/03/29 05:29:45;;;;;;;95.35;66.85;;;6.30;91.00;;;;;;5033680;28;20045;-82
2021/03/29 05:32:20;;;;;;;26.25;17.10;;;6.40;91.00;;;;;;5015715;28;20037;-81
2021/03/29 05:34:49;;;;;;;60.80;33.75;;;6.40;90.70;;;;;;5035860;28;20359;-82
2021/03/29 05:37:17;;;;;;;28.15;15.27;;;6.50;90.20;;;;;;5034246;28;20417;-81
2021/03/29 05:39:52;;;;;;;14.02;8.13;;;6.60;90.00;;;;;;5049299;28;20044;-82
2021/03/29 05:42:19;;;;;;;12.50;6.72;;;6.70;89.10;;;;;;5035456;28;20051;-82
2021/03/29 05:44:46;;;;;;;24.70;12.05;;;6.80;88.00;;;;;;5048255;28;20025;-81
2021/03/29 05:47:15;;;;;;;17.83;9.50;;;6.90;87.40;;;;;;5016923;28;20509;-80
2021/03/29 05:49:42;;;;;;;28.58;13.95;;;7.00;86.40;;;;;;5035310;28;20037;-81
2021/03/29 05:52:08;;;;;;;78.53;41.72;;;7.10;86.10;;;;;;5033464;28;20466;-81
2021/03/29 05:54:34;;;;;;;65.55;38.63;;;7.10;85.50;;;;;;5034295;28;20056;-81
2021/03/29 05:57:01;;;;;;;59.28;38.65;;;7.10;85.50;;;;;;5035083;28;20403;-81
2021/03/29 05:59:34;;;;;;;12.27;6.95;;;7.10;85.30;;;;;;5047117;28;20048;-73
2021/03/29 06:02:01;;;;;;;22.88;12.38;;;7.20;85.10;;;;;;5049016;28;20041;-81
2021/03/29 06:04:49;;;;;;;8.32;3.85;;;7.30;84.60;;;;;;5049643;28;20380;-82
2021/03/29 06:07:17;;;;;;;8.98;4.93;;;7.50;83.60;;;;;;5050836;28;20125;-81
2021/03/29 06:09:45;;;;;;;34.00;18.45;;;7.60;82.60;;;;;;5039534;28;20032;-81
2021/03/29 06:12:14;;;;;;;17.65;9.20;;;7.70;81.80;;;;;;5019456;28;20116;-82
2021/03/29 06:14:43;;;;;;;11.02;5.43;;;8.00;80.50;;;;;;5052155;28;20033;-83
2021/03/29 06:17:14;;;;;;;14.20;6.68;;;8.60;78.40;;;;;;5040617;28;20045;-82
2021/03/29 06:19:53;;;;;;;8.48;4.53;;;9.40;75.30;;;;;;5034253;28;20033;-80
2021/03/29 06:22:36;;;;;;;10.52;4.00;;;9.90;73.00;;;;;;5034843;28;20044;-80
2021/03/29 06:25:15;;;;;;;14.57;8.63;;;10.40;69.90;;;;;;5035989;28;20048;-80
2021/03/29 06:27:49;;;;;;;9.07;4.28;;;10.90;67.70;;;;;;5032628;28;20033;-80
2021/03/29 06:30:27;;;;;;;16.08;9.40;;;11.50;66.30;;;;;;5033294;28;20044;-80
2021/03/29 06:32:57;;;;;;;8.70;3.88;;;11.50;64.80;;;;;;5015749;28;20045;-80
2021/03/29 06:35:41;;;;;;;11.90;3.90;;;10.40;66.40;;;;;;5037933;28;20029;-80
2021/03/29 06:38:28;;;;;;;11.52;4.38;;;9.50;69.00;;;;;;5043081;28;20037;-83
2021/03/29 06:40:59;;;;;;;10.32;5.18;;;9.00;71.50;;;;;;5044015;28;20040;-80
2021/03/29 06:43:41;;;;;;;12.50;6.72;;;8.90;72.10;;;;;;5033038;28;20363;-80
2021/03/29 06:46:19;;;;;;;9.93;5.20;;;8.80;72.80;;;;;;5014976;28;20037;-81
2021/03/29 06:48:46;;;;;;;9.98;5.68;;;8.70;73.20;;;;;;5032757;28;20032;-80
2021/03/29 06:51:19;;;;;;;32.78;18.88;;;8.80;73.00;;;;;;5032355;28;20033;-80
2021/03/29 06:53:56;;;;;;;13.77;4.35;;;9.80;71.50;;;;;;5032556;28;20050;-81
2021/03/29 06:56:36;;;;;;;10.82;6.57;;;11.50;66.30;;;;;;5032653;28;20454;-81
2021/03/29 06:59:02;;;;;;;11.95;4.38;;;12.50;61.90;;;;;;5032109;28;20035;-81
2021/03/29 07:01:30;;;;;;;10.88;5.10;;;13.00;60.20;;;;;;5032546;28;20409;-82
2021/03/29 07:03:56;;;;;;;11.45;5.38;;;14.20;57.70;;;;;;5044974;28;20055;-81
2021/03/29 07:06:24;;;;;;;6.53;3.90;;;14.90;55.90;;;;;;5029559;28;20060;-82
2021/03/29 07:08:50;;;;;;;11.23;4.68;;;15.70;54.00;;;;;;5032067;28;20040;-82
2021/03/29 07:11:19;;;;;;;10.05;4.43;;;15.80;53.20;;;;;;5035999;28;20048;-83
2021/03/29 07:13:46;;;;;;;10.63;4.00;;;16.10;51.70;;;;;;5043409;28;20484;-83
2021/03/29 07:16:12;;;;;;;9.18;4.43;;;14.90;52.60;;;;;;5051012;28;20568;-83
2021/03/29 07:18:40;;;;;;;8.93;4.13;;;14.20;54.70;;;;;;5036288;28;20044;-83
2021/03/29 07:21:10;;;;;;;12.38;5.40;;;14.30;54.80;;;;;;5014923;28;20041;-83
2021/03/29 07:23:38;;;;;;;13.73;6.65;;;14.70;53.40;;;;;;5012914;28;20513;-82
2021/03/29 07:26:18;;;;;;;11.23;4.25;;;13.80;54.80;;;;;;5014058;28;20048;-82
2021/03/29 07:28:44;;;;;;;9.95;3.58;;;13.40;55.30;;;;;;5032744;28;20052;-82
2021/03/29 07:31:11;;;;;;;8.00;5.03;;;14.20;55.20;;;;;;5032043;28;20037;-82
2021/03/29 07:33:50;;;;;;;6.95;3.40;;;15.30;52.60;;;;;;5035478;28;20025;-82
2021/03/29 07:36:39;;;;;;;10.60;4.43;;;15.80;51.80;;;;;;5041199;28;20033;-83
2021/03/29 07:39:06;;;;;;;8.75;4.10;;;16.10;51.40;;;;;;5036372;28;20488;-83
2021/03/29 07:41:33;;;;;;;14.35;8.45;;;16.40;50.00;;;;;;5020839;28;20045;-84
2021/03/29 07:44:15;;;;;;;40.30;26.63;;;16.90;48.90;;;;;;5038209;28;20044;-84
2021/03/29 07:46:47;;;;;;;15.68;8.25;;;16.60;48.90;;;;;;5046467;28;20059;-83
2021/03/29 07:49:42;;;;;;;8.73;5.43;;;16.60;49.20;;;;;;5064780;28;20044;-83
2021/03/29 07:52:31;;;;;;;8.98;4.82;;;16.70;49.60;;;;;;5046089;28;20040;-85
2021/03/29 07:55:00;;;;;;;12.45;5.50;;;17.00;49.30;;;;;;5046796;28;20060;-83
2021/03/29 07:57:59;;;;;;;11.13;6.65;;;17.40;48.00;;;;;;5037517;28;20045;-83
2021/03/29 08:00:27;;;;;;;8.10;4.20;;;17.10;47.80;;;;;;5010758;28;20056;-82
2021/03/29 08:03:11;;;;;;;9.95;4.55;;;17.30;48.50;;;;;;5038548;28;20037;-79
2021/03/29 08:05:46;;;;;;;8.23;3.90;;;17.30;47.30;;;;;;5038558;28;20032;-85
2021/03/29 08:08:27;;;;;;;11.30;6.43;;;17.10;47.70;;;;;;5020744;28;20489;-85
2021/03/29 08:11:14;;;;;;;34.30;27.35;;;17.20;47.80;;;;;;5037735;28;20029;-81
2021/03/29 08:13:48;;;;;;;10.32;7.40;;;17.70;47.30;;;;;;5038436;28;20029;-83
2021/03/29 08:16:28;;;;;;;7.20;3.58;;;17.50;47.00;;;;;;5037831;28;20385;-83
2021/03/29 08:19:24;;;;;;;9.70;4.55;;;17.70;47.30;;;;;;5038054;28;20033;-83
2021/03/29 08:21:56;;;;;;;7.93;3.30;;;18.10;46.50;;;;;;5038857;28;20492;-83
2021/03/29 08:24:42;;;;;;;7.45;4.05;;;17.80;45.80;;;;;;5038102;28;20041;-79
2021/03/29 08:27:14;;;;;;;7.05;3.35;;;17.30;46.80;;;;;;5037659;28;20033;-79
2021/03/29 08:29:46;;;;;;;5.85;3.17;;;17.20;47.10;;;;;;5021196;28;20477;-80
2021/03/29 08:32:33;;;;;;;8.65;4.35;;;18.00;46.40;;;;;;5036760;28;20053;-82
2021/03/29 08:35:01;;;;;;;11.43;3.97;;;18.70;46.50;;;;;;5020137;28;20497;-79
2021/03/29 08:37:45;;;;;;;7.47;4.45;;;18.30;45.50;;;;;;5038206;28;20083;-80
2021/03/29 08:40:30;;;;;;;7.57;4.07;;;18.40;45.90;;;;;;5048931;28;20032;-81
2021/03/29 08:43:02;;;;;;;11.82;6.03;;;18.60;45.20;;;;;;5023275;28;20052;-83
2021/03/29 08:45:28;;;;;;;12.77;4.70;;;18.50;45.40;;;;;;5032763;28;20028;-81
2021/03/29 08:48:02;;;;;;;10.73;4.32;;;18.90;45.50;;;;;;5045422;28;20037;-83
2021/03/29 08:50:31;;;;;;;9.07;3.90;;;19.00;45.00;;;;;;5044482;28;20036;-82
2021/03/29 08:52:59;;;;;;;5.88;3.08;;;19.30;45.10;;;;;;5032160;28;20053;-82
2021/03/29 08:55:43;;;;;;;7.75;3.97;;;19.70;43.70;;;;;;5048808;28;20397;-80
2021/03/29 08:58:11;;;;;;;5.78;3.05;;;19.50;44.40;;;;;;5039319;28;20033;-81
2021/03/29 09:00:42;;;;;;;7.70;3.28;;;20.00;43.80;;;;;;5046616;28;20074;-83
2021/03/29 09:03:15;;;;;;;7.70;3.35;;;19.50;44.00;;;;;;5048801;28;20041;-82
2021/03/29 09:05:41;;;;;;;7.07;3.30;;;18.90;44.80;;;;;;5044146;28;20029;-83
2021/03/29 09:08:12;;;;;;;6.90;3.50;;;18.90;44.80;;;;;;5045525;28;20027;-81
2021/03/29 09:10:39;;;;;;;7.45;4.00;;;19.30;44.10;;;;;;5031598;28;20385;-82
2021/03/29 09:13:06;;;;;;;11.23;3.67;;;19.20;44.30;;;;;;5047093;28;20030;-80
2021/03/29 09:15:37;;;;;;;7.57;2.90;;;19.50;43.60;;;;;;5024287;28;20044;-85
2021/03/29 09:18:09;;;;;;;9.27;3.28;;;19.40;43.40;;;;;;5033561;28;20033;-80
2021/03/29 09:20:42;;;;;;;10.63;4.65;;;19.20;43.70;;;;;;5033895;28;20033;-80
2021/03/29 09:23:12;;;;;;;5.22;2.95;;;19.30;44.20;;;;;;5032599;28;20057;-80
2021/03/29 09:25:39;;;;;;;;;;;19.20;43.80;;;;;;5017205;28;20037;-76
2021/03/29 09:28:10;;;;;;;8.68;3.05;;;19.70;43.90;;;;;;5033765;28;19909;-76
2021/03/29 09:30:37;;;;;;;9.20;3.65;;;19.40;43.50;;;;;;5017176;28;20053;-76
2021/03/29 09:33:03;;;;;;;12.15;3.88;;;20.00;43.10;;;;;;5033921;28;20034;-78
2021/03/29 09:35:30;;;;;;;7.00;3.30;;;19.60;43.50;;;;;;5034085;28;20041;-78
2021/03/29 09:37:56;;;;;;;7.00;4.18;;;20.00;43.50;;;;;;5016325;28;20044;-79
2021/03/29 09:40:23;;;;;;;7.60;4.68;;;20.40;42.90;;;;;;5044219;28;20366;-78
2021/03/29 09:42:54;;;;;;;10.88;7.45;;;21.00;42.00;;;;;;5039612;28;20052;-83
2021/03/29 09:45:26;;;;;;;8.38;4.25;;;20.90;41.90;;;;;;5044686;28;20037;-84
2021/03/29 09:48:02;;;;;;;7.70;2.53;;;19.90;42.40;;;;;;5043929;28;20030;-82
2021/03/29 09:50:35;;;;;;;4.90;2.60;;;19.60;42.50;;;;;;5026714;28;20685;-82
2021/03/29 09:53:25;;;;;;;13.02;9.57;;;20.10;41.80;;;;;;5049144;28;20060;-82
2021/03/29 09:55:56;;;;;;;7.93;5.57;;;20.40;42.00;;;;;;5035088;28;20029;-83
2021/03/29 09:58:38;;;;;;;14.00;3.72;;;20.40;42.00;;;;;;5032870;28;20025;-83
2021/03/29 10:01:24;;;;;;;8.52;2.92;;;19.80;41.60;;;;;;5029515;28;20037;-84
2021/03/29 10:03:55;;;;;;;10.13;2.72;;;19.60;42.60;;;;;;5051560;28;20480;-83
2021/03/29 10:06:23;;;;;;;14.80;2.95;;;19.40;42.90;;;;;;5050735;28;20037;-83
2021/03/29 10:09:00;;;;;;;4.72;2.20;;;18.70;42.70;;;;;;5050580;28;20047;-82
2021/03/29 10:11:41;;;;;;;4.25;1.73;;;18.40;43.40;;;;;;5049692;28;20342;-82
2021/03/29 10:14:07;;;;;;;;;;;18.10;43.70;;;;;;5050438;28;20385;-81
2021/03/29 10:16:44;;;;;;;6.47;2.53;;;18.00;44.50;;;;;;5042280;28;19909;-83
2021/03/29 10:19:14;;;;;;;9.18;2.05;;;17.90;45.10;;;;;;5028867;28;20044;-82
2021/03/29 10:22:14;;;;;;;10.00;1.88;;;18.20;44.70;;;;;;5044121;28;20038;-82
2021/03/29 10:25:07;;;;;;;12.50;3.03;;;18.10;44.20;;;;;;5018492;28;20045;-80
2021/03/29 10:27:40;;;;;;;5.00;1.50;;;18.00;44.90;;;;;;5043648;28;20033;-80
2021/03/29 10:30:08;;;;;;;3.95;1.70;;;18.00;43.90;;;;;;5040258;28;20033;-75
2021/03/29 10:32:35;;;;;;;11.25;1.92;;;18.00;44.60;;;;;;5047886;28;20045;-81
2021/03/29 10:35:03;;;;;;;6.30;1.52;;;17.80;44.40;;;;;;5033026;28;20040;-83
2021/03/29 10:37:32;;;;;;;4.43;1.40;;;18.00;44.60;;;;;;5036287;28;20032;-84
2021/03/29 10:40:00;;;;;;;7.30;1.67;;;17.70;44.40;;;;;;5051823;28;20083;-80
2021/03/29 10:42:31;;;;;;;7.40;2.22;;;17.70;44.60;;;;;;5044802;28;20040;-80
2021/03/29 10:44:57;;;;;;;4.93;1.83;;;17.90;44.00;;;;;;5032270;28;20037;-84
2021/03/29 10:47:24;;;;;;;5.82;1.70;;;17.90;44.50;;;;;;5032550;28;20067;-81
2021/03/29 10:49:51;;;;;;;5.93;2.10;;;18.00;45.20;;;;;;5033354;28;20057;-88
2021/03/29 10:52:18;;;;;;;4.93;1.80;;;18.30;44.00;;;;;;5032567;28;20052;-86
2021/03/29 10:54:44;;;;;;;7.97;2.00;;;18.20;43.60;;;;;;5015324;28;20046;-88
2021/03/29 10:57:11;;;;;;;3.28;1.75;;;18.20;44.20;;;;;;5015519;28;20037;-86
2021/03/29 10:59:37;;;;;;;6.15;2.53;;;18.50;43.60;;;;;;5034194;28;20025;-88
2021/03/29 11:02:04;;;;;;;4.80;1.45;;;18.20;43.60;;;;;;5044891;28;20040;-85
2021/03/29 11:04:33;;;;;;;5.10;1.60;;;18.30;44.10;;;;;;5032470;28;20037;-87
2021/03/29 11:06:59;;;;;;;5.47;1.58;;;18.70;43.70;;;;;;5014838;28;20041;-84
2021/03/29 11:09:26;;;;;;;5.53;1.48;;;18.90;43.30;;;;;;5032400;28;20041;-84
2021/03/29 11:11:53;;;;;;;5.43;1.75;;;19.00;43.40;;;;;;5032787;28;20528;-85
2021/03/29 11:14:20;;;;;;;5.97;1.45;;;19.00;43.10;;;;;;5013064;28;20144;-86
2021/03/29 11:16:49;;;;;;;5.70;1.73;;;19.20;43.00;;;;;;5032632;28;20044;-83
2021/03/29 11:19:17;;;;;;;4.30;1.80;;;19.30;42.70;;;;;;5021948;28;20041;-85
2021/03/29 11:21:44;;;;;;;8.55;1.75;;;19.20;43.00;;;;;;5033204;28;20493;-76
2021/03/29 11:24:13;;;;;;;10.48;2.15;;;19.30;42.70;;;;;;5035480;28;20056;-81
2021/03/29 11:26:40;;;;;;;5.78;1.27;;;19.30;42.60;;;;;;5043619;28;20032;-80
2021/03/29 11:29:07;;;;;;;4.05;1.52;;;19.20;42.20;;;;;;5043801;28;20029;-81
2021/03/29 11:31:37;;;;;;;6.28;1.40;;;19.20;42.30;;;;;;5040227;28;20469;-81
2021/03/29 11:34:03;;;;;;;5.20;1.17;;;19.40;42.20;;;;;;5014720;28;20453;-82
2021/03/29 11:36:30;;;;;;;5.38;1.60;;;19.50;41.80;;;;;;5025620;28;20292;-81
2021/03/29 11:38:56;;;;;;;2.88;1.20;;;19.40;42.40;;;;;;5041016;28;20028;-80
2021/03/29 11:41:22;;;;;;;3.22;1.27;;;19.40;42.10;;;;;;5045262;28;20029;-85
2021/03/29 11:43:49;;;;;;;3.72;1.50;;;19.40;41.50;;;;;;5045010;28;20036;-80
2021/03/29 11:46:16;;;;;;;11.35;4.20;;;19.40;42.40;;;;;;5048849;28;20024;-80
2021/03/29 11:48:42;;;;;;;27.13;17.17;;;19.40;42.20;;;;;;5045620;28;20025;-81
2021/03/29 11:51:09;;;;;;;98.53;61.25;;;20.00;41.80;;;;;;5041148;28;20041;-76
2021/03/29 11:53:36;;;;;;;21.98;13.68;;;19.80;40.80;;;;;;5013993;28;20370;-79
2021/03/29 11:56:04;;;;;;;8.80;3.40;;;19.90;41.50;;;;;;5032016;28;20037;-79
2021/03/29 11:58:30;;;;;;;30.20;17.75;;;19.90;41.10;;;;;;5032191;28;20031;-79
2021/03/29 12:01:06;;;;;;;9.75;4.38;;;19.90;41.60;;;;;;5031956;28;20454;-79
2021/03/29 12:06:45;;;;;;;5.20;2.55;;;19.50;41.10;;;;;;5031496;28;20033;-79
2021/03/29 12:09:07;;;;;;;3.90;1.52;;;19.80;41.10;;;;;;5030801;28;20428;-79
2021/03/29 12:14:12;;;;;;;7.85;3.63;;;20.00;40.20;;;;;;5032902;28;20025;-79
2021/03/29 12:16:43;;;;;;;3.42;1.25;;;20.20;40.20;;;;;;5045573;28;20044;-79
2021/03/29 12:19:09;;;;;;;6.93;2.33;;;20.30;40.20;;;;;;5016717;28;20392;-78
2021/03/29 12:21:37;;;;;;;3.22;1.33;;;20.20;40.20;;;;;;5037920;28;20026;-78
2021/03/29 12:24:16;;;;;;;3.72;1.25;;;20.10;39.80;;;;;;5030182;28;20056;-79
2021/03/29 12:26:43;;;;;;;4.63;1.48;;;20.20;40.30;;;;;;5038846;28;20028;-78
2021/03/29 12:29:15;;;;;;;3.45;1.85;;;20.30;40.20;;;;;;5050729;28;20025;-79
2021/03/29 12:31:42;;;;;;;6.95;2.53;;;20.60;39.70;;;;;;5038623;28;20571;-79
2021/03/29 12:34:09;;;;;;;3.15;1.30;;;21.00;39.50;;;;;;5037919;28;20029;-78
2021/03/29 12:36:43;;;;;;;5.32;1.30;;;21.10;38.90;;;;;;5035833;28;20442;-78
2021/03/29 12:41:41;;;;;;;3.97;1.23;;;20.50;39.20;;;;;;5049325;28;20032;-78
2021/03/29 12:44:14;;;;;;;3.65;1.30;;;20.70;39.20;;;;;;5042034;28;20369;-79
2021/03/29 12:46:42;;;;;;;4.00;1.15;;;20.80;39.60;;;;;;5026865;28;20040;-80
2021/03/29 12:49:13;;;;;;;3.60;1.00;;;20.90;38.90;;;;;;5031621;28;20040;-81
2021/03/29 12:51:40;;;;;;;3.42;1.25;;;20.60;38.60;;;;;;5039660;28;20037;-80
2021/03/29 12:54:08;;;;;;;4.78;1.00;;;20.60;39.20;;;;;;5044715;28;20048;-79
2021/03/29 12:56:35;;;;;;;5.13;1.15;;;20.90;39.20;;;;;;5024777;28;20357;-79
2021/03/29 12:59:06;;;;;;;3.90;0.98;;;21.00;38.50;;;;;;5044280;28;20454;-78
2021/03/29 13:01:33;;;;;;;8.85;6.00;;;21.10;38.40;;;;;;5035296;28;20040;-76
2021/03/29 13:04:07;;;;;;;6.15;1.90;;;21.20;38.50;;;;;;5048997;28;20037;-81
2021/03/29 13:07:03;;;;;;;20.40;10.15;;;21.40;38.30;;;;;;5042412;28;20041;-76
2021/03/29 13:09:50;;;;;;;3.33;1.20;;;21.30;37.10;;;;;;5039429;28;20025;-76
2021/03/29 13:12:14;;;;;;;6.55;1.98;;;21.30;37.60;;;;;;5034858;28;20037;-79
2021/03/29 13:15:02;;;;;;;10.18;6.78;;;21.20;38.10;;;;;;5035013;28;20033;-79